createdAt,value
2022-12-07T00:01:39.872Z,23.60
2022-12-07T00:04:11.966Z,16.80
2022-12-07T00:06:44.728Z,20.15
2022-12-07T00:09:15.279Z,25.77
2022-12-07T00:11:43.455Z,20.52
2022-12-07T00:14:16.610Z,15.68
2022-12-07T00:16:45.383Z,21.13
2022-12-07T00:19:14.963Z,21.55
2022-12-07T00:21:42.816Z,22.45
2022-12-07T00:24:11.737Z,22.35
2022-12-07T00:26:41.132Z,22.67
2022-12-07T00:29:22.674Z,22.05
2022-12-07T00:31:50.470Z,22.05
2022-12-07T00:34:20.174Z,19.10
2022-12-07T00:36:48.057Z,20.65
2022-12-07T00:39:16.142Z,20.98
2022-12-07T00:41:43.732Z,27.67
2022-12-07T00:44:11.401Z,20.52
2022-12-07T00:46:38.969Z,20.60
2022-12-07T00:49:06.499Z,19.38
2022-12-07T00:51:34.114Z,23.20
2022-12-07T00:54:01.666Z,26.13
2022-12-07T00:56:30.453Z,25.75
2022-12-07T00:59:00.231Z,22.85
2022-12-07T01:01:31.350Z,21.90
2022-12-07T01:03:59.404Z,22.10
2022-12-07T01:06:27.085Z,21.40
2022-12-07T01:08:55.417Z,21.77
2022-12-07T01:11:25.932Z,24.80
2022-12-07T01:13:55.148Z,23.88
2022-12-07T01:16:24.589Z,21.25
2022-12-07T01:18:55.012Z,23.23
2022-12-07T01:21:28.650Z,23.50
2022-12-07T01:23:58.643Z,22.95
2022-12-07T01:26:27.252Z,29.20
2022-12-07T01:28:56.209Z,22.98
2022-12-07T01:31:26.514Z,20.08
2022-12-07T01:33:57.744Z,20.08
2022-12-07T01:36:33.371Z,23.67
2022-12-07T01:39:04.825Z,25.52
2022-12-07T01:41:36.074Z,22.67
2022-12-07T01:44:30.946Z,25.02
2022-12-07T01:47:01.190Z,27.42
2022-12-07T01:49:34.514Z,22.52
2022-12-07T01:52:17.079Z,32.38
2022-12-07T01:54:46.809Z,25.23
2022-12-07T01:57:16.701Z,20.77
2022-12-07T01:59:46.732Z,23.33
2022-12-07T02:02:36.122Z,23.42
2022-12-07T02:05:05.754Z,24.90
2022-12-07T02:07:37.307Z,21.73
2022-12-07T02:12:43.529Z,19.67
2022-12-07T02:15:12.909Z,24.00
2022-12-07T02:17:53.107Z,18.83
2022-12-07T02:20:33.569Z,22.02
2022-12-07T02:23:07.041Z,19.92
2022-12-07T02:25:49.564Z,20.05
2022-12-07T02:28:23.291Z,21.95
2022-12-07T02:30:53.279Z,20.98
2022-12-07T02:33:30.627Z,18.33
2022-12-07T02:36:11.332Z,27.80
2022-12-07T02:39:02.827Z,22.95
2022-12-07T02:41:38.960Z,21.40
2022-12-07T02:44:11.345Z,18.83
2022-12-07T02:46:44.053Z,24.35
2022-12-07T02:49:12.367Z,28.95
2022-12-07T02:51:42.236Z,17.50
2022-12-07T02:54:18.208Z,17.95
2022-12-07T02:56:45.684Z,22.55
2022-12-07T02:59:34.981Z,16.60
2022-12-07T03:02:19.293Z,18.40
2022-12-07T03:05:02.993Z,17.55
2022-12-07T03:07:57.969Z,21.75
2022-12-07T03:10:37.656Z,23.10
2022-12-07T03:13:14.699Z,24.38
2022-12-07T03:15:57.311Z,20.92
2022-12-07T03:18:30.430Z,21.33
2022-12-07T03:21:03.057Z,24.20
2022-12-07T03:23:34.650Z,21.85
2022-12-07T03:28:38.361Z,28.10
2022-12-07T03:31:25.046Z,22.70
2022-12-07T03:34:18.816Z,18.70
2022-12-07T03:36:50.464Z,21.20
2022-12-07T03:39:33.912Z,22.65
2022-12-07T03:42:04.514Z,30.55
2022-12-07T03:44:33.172Z,23.15
2022-12-07T03:47:03.871Z,27.85
2022-12-07T03:49:54.889Z,20.80
2022-12-07T03:52:33.815Z,25.27
2022-12-07T03:55:22.835Z,17.77
2022-12-07T03:57:54.598Z,23.27
2022-12-07T04:00:22.637Z,23.50
2022-12-07T04:02:53.825Z,21.85
2022-12-07T04:05:22.107Z,24.67
2022-12-07T04:07:49.721Z,21.00
2022-12-07T04:10:17.528Z,26.40
2022-12-07T04:12:45.047Z,25.83
2022-12-07T04:15:12.860Z,23.65
2022-12-07T04:17:40.416Z,23.92
2022-12-07T04:20:09.189Z,27.40
2022-12-07T04:22:37.101Z,28.55
2022-12-07T04:25:05.367Z,25.52
2022-12-07T04:27:32.905Z,24.20
2022-12-07T04:30:01.035Z,24.15
2022-12-07T04:32:29.085Z,27.08
2022-12-07T04:34:56.888Z,28.55
2022-12-07T04:37:25.319Z,25.40
2022-12-07T04:39:52.844Z,26.70
2022-12-07T04:42:20.365Z,24.98
2022-12-07T04:44:47.876Z,27.38
2022-12-07T04:47:15.491Z,26.48
2022-12-07T04:49:43.184Z,26.27
2022-12-07T04:52:10.960Z,20.90
2022-12-07T04:54:38.573Z,26.00
2022-12-07T04:57:06.463Z,26.40
2022-12-07T04:59:33.964Z,24.02
2022-12-07T05:02:01.537Z,21.08
2022-12-07T05:04:29.192Z,30.45
2022-12-07T05:06:56.766Z,22.60
2022-12-07T05:09:24.637Z,18.38
2022-12-07T05:11:52.154Z,25.35
2022-12-07T05:14:21.357Z,25.15
2022-12-07T05:16:51.636Z,29.50
2022-12-07T05:19:20.444Z,26.73
2022-12-07T05:21:48.696Z,21.90
2022-12-07T05:24:17.738Z,23.13
2022-12-07T05:26:46.111Z,20.35
2022-12-07T05:29:18.112Z,20.17
2022-12-07T05:31:46.489Z,23.63
2022-12-07T05:34:14.325Z,18.50
2022-12-07T05:36:41.999Z,23.73
2022-12-07T05:39:09.883Z,21.50
2022-12-07T05:41:56.067Z,26.17
2022-12-07T05:44:23.693Z,22.52
2022-12-07T05:46:51.239Z,24.63
2022-12-07T05:49:18.850Z,32.03
2022-12-07T05:51:46.404Z,29.02
2022-12-07T05:54:13.959Z,34.85
2022-12-07T05:56:41.443Z,28.63
2022-12-07T05:59:25.433Z,33.60
2022-12-07T06:01:54.981Z,28.67
2022-12-07T06:04:23.434Z,28.88
2022-12-07T06:06:51.569Z,27.20
2022-12-07T06:09:19.973Z,34.85
2022-12-07T06:12:06.584Z,35.50
2022-12-07T06:14:34.379Z,31.05
2022-12-07T06:17:02.377Z,34.35
2022-12-07T06:19:30.028Z,38.35
2022-12-07T06:21:58.162Z,33.72
2022-12-07T06:24:26.115Z,26.33
2022-12-07T06:26:53.660Z,30.65
2022-12-07T06:29:21.484Z,32.10
2022-12-07T06:31:49.483Z,29.75
2022-12-07T06:34:20.373Z,28.63
2022-12-07T06:36:52.150Z,29.70
2022-12-07T06:39:21.248Z,20.95
2022-12-07T06:41:49.572Z,22.75
2022-12-07T06:44:17.297Z,21.58
2022-12-07T06:46:44.957Z,25.15
2022-12-07T06:49:13.019Z,24.48
2022-12-07T06:51:43.484Z,26.92
2022-12-07T06:54:15.431Z,25.95
2022-12-07T06:56:43.208Z,24.38
2022-12-07T06:59:11.036Z,27.90
2022-12-07T07:01:39.099Z,28.15
2022-12-07T07:04:11.049Z,28.33
2022-12-07T07:06:38.653Z,27.40
2022-12-07T07:09:06.310Z,26.00
2022-12-07T07:11:34.069Z,28.70
2022-12-07T07:14:03.373Z,25.98
2022-12-07T07:16:32.085Z,27.90
2022-12-07T07:18:59.696Z,28.98
2022-12-07T07:21:27.371Z,30.27
2022-12-07T07:23:54.885Z,31.70
2022-12-07T07:26:23.458Z,37.22
2022-12-07T07:28:51.194Z,23.90
2022-12-07T07:31:18.902Z,31.77
2022-12-07T07:33:48.166Z,30.33
2022-12-07T07:36:15.803Z,28.65
2022-12-07T07:38:43.468Z,27.75
2022-12-07T07:41:11.112Z,38.10
2022-12-07T07:43:38.652Z,31.55
2022-12-07T07:46:06.205Z,30.58
2022-12-07T07:48:33.779Z,32.85
2022-12-07T07:51:01.505Z,27.90
2022-12-07T07:53:29.059Z,25.50
2022-12-07T07:55:56.720Z,28.00
2022-12-07T07:58:24.248Z,24.15
2022-12-07T08:00:51.871Z,25.88
2022-12-07T08:03:19.365Z,27.98
2022-12-07T08:05:47.059Z,25.60
2022-12-07T08:08:14.627Z,32.00
2022-12-07T08:10:42.225Z,26.88
2022-12-07T08:13:12.654Z,29.50
2022-12-07T08:15:41.970Z,29.73
2022-12-07T08:18:09.703Z,33.40
2022-12-07T08:20:38.792Z,29.17
2022-12-07T08:23:07.474Z,27.15
2022-12-07T08:25:35.580Z,37.13
2022-12-07T08:28:03.845Z,33.10
2022-12-07T08:30:31.856Z,27.48
2022-12-07T08:32:59.423Z,30.20
2022-12-07T08:35:27.169Z,24.17
2022-12-07T08:37:54.764Z,23.48
2022-12-07T08:40:22.610Z,23.77
2022-12-07T08:42:51.014Z,19.60
2022-12-07T08:45:26.464Z,27.15
2022-12-07T08:47:59.841Z,30.73
2022-12-07T08:50:27.956Z,22.58
2022-12-07T08:52:58.125Z,29.15
2022-12-07T08:55:26.565Z,22.88
2022-12-07T08:57:54.283Z,21.20
2022-12-07T09:00:21.997Z,24.70
2022-12-07T09:02:49.621Z,17.77
2022-12-07T09:05:17.384Z,21.27
2022-12-07T09:07:50.351Z,21.77
2022-12-07T09:10:18.929Z,15.88
2022-12-07T09:12:46.407Z,18.50
2022-12-07T09:15:14.153Z,18.05
2022-12-07T09:17:41.748Z,18.20
2022-12-07T09:20:09.723Z,18.05
2022-12-07T09:22:37.244Z,18.48
2022-12-07T09:25:05.348Z,21.02
2022-12-07T09:27:32.931Z,19.58
2022-12-07T09:30:01.012Z,15.38
2022-12-07T09:32:29.049Z,14.20
2022-12-07T09:34:56.869Z,20.25
2022-12-07T09:37:24.602Z,21.38
2022-12-07T09:39:53.188Z,16.88
2022-12-07T09:42:30.910Z,21.70
2022-12-07T09:45:00.553Z,17.90
2022-12-07T09:47:30.030Z,19.10
2022-12-07T09:50:08.976Z,14.18
2022-12-07T09:52:39.245Z,22.25
2022-12-07T09:55:37.351Z,12.77
2022-12-07T09:58:05.152Z,18.20
2022-12-07T10:00:32.731Z,16.33
2022-12-07T10:03:02.838Z,12.05
2022-12-07T10:05:36.095Z,13.70
2022-12-07T10:08:04.577Z,10.98
2022-12-07T10:10:38.296Z,14.48
2022-12-07T10:13:12.279Z,13.38
2022-12-07T10:16:03.579Z,12.88
2022-12-07T10:18:39.869Z,12.05
2022-12-07T10:21:24.952Z,10.00
2022-12-07T10:24:15.878Z,12.75
2022-12-07T10:26:49.247Z,12.87
2022-12-07T10:29:39.277Z,8.70
2022-12-07T10:32:25.319Z,9.38
2022-12-07T10:35:13.634Z,9.38
2022-12-07T10:37:42.343Z,10.38
2022-12-07T10:40:38.661Z,8.73
2022-12-07T10:43:13.260Z,13.55
2022-12-07T10:46:13.241Z,7.35
2022-12-07T10:49:00.279Z,10.70
2022-12-07T10:52:11.000Z,7.90
2022-12-07T10:55:10.068Z,10.00
2022-12-07T10:58:00.290Z,7.07
2022-12-07T11:00:40.083Z,7.38
2022-12-07T11:03:35.308Z,7.05
2022-12-07T11:06:25.350Z,8.13
2022-12-07T11:08:52.884Z,8.70
2022-12-07T11:11:42.929Z,8.60
2022-12-07T11:14:25.917Z,9.48
2022-12-07T11:16:58.295Z,10.20
2022-12-07T11:19:46.695Z,10.65
2022-12-07T11:22:32.309Z,13.00
2022-12-07T11:25:27.167Z,9.60
2022-12-07T11:28:02.288Z,7.07
2022-12-07T11:30:58.457Z,8.80
2022-12-07T11:33:46.916Z,10.65
2022-12-07T11:36:44.617Z,9.32
2022-12-07T11:39:23.835Z,9.00
2022-12-07T11:41:57.811Z,9.80
2022-12-07T11:44:52.263Z,8.93
2022-12-07T11:47:35.079Z,8.48
2022-12-07T11:50:27.356Z,9.75
2022-12-07T11:53:06.817Z,9.52
2022-12-07T11:56:03.320Z,9.45
2022-12-07T11:58:49.060Z,10.82
2022-12-07T12:01:32.179Z,9.82
2022-12-07T12:04:10.108Z,10.65
2022-12-07T12:06:39.912Z,12.00
2022-12-07T12:15:57.254Z,10.10
2022-12-07T12:18:33.822Z,10.25
2022-12-07T12:21:10.106Z,10.30
2022-12-07T12:23:52.043Z,10.45
2022-12-07T12:26:23.625Z,10.93
2022-12-07T12:29:03.809Z,9.25
2022-12-07T12:31:33.628Z,8.90
2022-12-07T12:34:03.448Z,11.13
2022-12-07T12:37:00.761Z,9.23
2022-12-07T12:39:28.400Z,8.82
2022-12-07T12:41:57.466Z,10.43
2022-12-07T12:44:33.069Z,8.32
2022-12-07T12:47:02.893Z,7.70
2022-12-07T12:49:30.363Z,8.85
2022-12-07T12:51:59.021Z,9.60
2022-12-07T12:54:34.505Z,7.05
2022-12-07T12:57:14.146Z,8.00
2022-12-07T12:59:53.706Z,7.25
2022-12-07T13:02:33.019Z,10.63
2022-12-07T13:05:11.224Z,8.27
2022-12-07T13:07:48.171Z,8.80
2022-12-07T13:10:32.103Z,7.25
2022-12-07T13:13:01.819Z,10.10
2022-12-07T13:15:41.020Z,7.40
2022-12-07T13:18:30.264Z,6.80
2022-12-07T13:21:02.311Z,9.38
2022-12-07T13:23:34.322Z,8.23
2022-12-07T13:26:07.552Z,7.85
2022-12-07T13:28:40.917Z,8.23
2022-12-07T13:31:31.871Z,9.93
2022-12-07T13:33:59.768Z,11.57
2022-12-07T13:36:48.984Z,10.13
2022-12-07T13:39:20.774Z,8.45
2022-12-07T13:41:53.169Z,9.18
2022-12-07T13:44:21.493Z,8.60
2022-12-07T13:46:54.802Z,9.48
2022-12-07T13:49:28.271Z,8.80
2022-12-07T13:52:08.249Z,8.48
2022-12-07T13:54:46.081Z,8.48
2022-12-07T13:57:13.654Z,12.50
2022-12-07T13:59:41.365Z,10.75
2022-12-07T14:02:32.382Z,9.15
2022-12-07T14:05:13.786Z,10.85
2022-12-07T14:08:14.048Z,12.77
2022-12-07T14:10:54.847Z,9.55
2022-12-07T14:14:00.479Z,9.57
2022-12-07T14:16:37.130Z,9.65
2022-12-07T14:19:26.132Z,11.18
2022-12-07T14:22:08.221Z,9.65
2022-12-07T14:24:45.756Z,7.13
2022-12-07T14:27:31.442Z,7.13
2022-12-07T14:29:59.016Z,7.97
2022-12-07T14:32:30.133Z,12.15
2022-12-07T14:35:02.663Z,8.90
2022-12-07T14:37:31.619Z,8.50
2022-12-07T14:39:59.168Z,10.80
2022-12-07T14:42:30.738Z,8.18
2022-12-07T14:50:18.466Z,10.77
2022-12-07T14:55:49.895Z,10.43
2022-12-07T14:58:18.868Z,13.43
2022-12-07T15:00:46.524Z,8.80
2022-12-07T15:03:14.294Z,10.55
2022-12-07T15:05:42.884Z,9.48
2022-12-07T15:08:13.737Z,10.98
2022-12-07T15:10:41.550Z,12.05
2022-12-07T15:13:27.824Z,11.65
2022-12-07T15:15:56.322Z,12.02
2022-12-07T15:18:25.372Z,10.18
2022-12-07T15:20:52.976Z,12.38
2022-12-07T15:23:20.785Z,12.13
2022-12-07T15:25:49.626Z,14.23
2022-12-07T15:28:17.432Z,13.30
2022-12-07T15:30:46.218Z,13.57
2022-12-07T15:33:14.616Z,16.77
2022-12-07T15:35:45.997Z,12.35
2022-12-07T15:38:14.238Z,19.65
2022-12-07T15:40:41.741Z,15.70
2022-12-07T15:43:32.018Z,15.45
2022-12-07T15:46:00.442Z,15.88
2022-12-07T15:48:29.118Z,16.73
2022-12-07T15:51:08.239Z,15.25
2022-12-07T15:53:37.212Z,22.02
2022-12-07T15:56:09.380Z,19.45
2022-12-07T15:58:37.179Z,24.25
2022-12-07T16:01:12.655Z,25.65
2022-12-07T16:03:40.335Z,23.95
2022-12-07T16:06:08.133Z,19.70
2022-12-07T16:08:36.842Z,19.55
2022-12-07T16:11:08.027Z,19.00
2022-12-07T16:13:36.220Z,22.77
2022-12-07T16:16:08.866Z,24.77
2022-12-07T16:18:36.867Z,23.63
2022-12-07T16:21:05.022Z,19.50
2022-12-07T16:23:32.653Z,27.35
2022-12-07T16:26:14.562Z,18.38
2022-12-07T16:28:42.863Z,18.15
2022-12-07T16:31:15.843Z,22.58
2022-12-07T16:33:44.990Z,17.02
2022-12-07T16:36:14.556Z,21.77
2022-12-07T16:38:42.960Z,25.80
2022-12-07T16:41:12.872Z,28.45
2022-12-07T16:43:40.968Z,45.80
2022-12-07T16:46:09.006Z,49.65
2022-12-07T16:48:41.000Z,46.60
2022-12-07T16:51:11.048Z,22.98
2022-12-07T16:53:40.847Z,28.05
2022-12-07T16:56:16.728Z,21.92
2022-12-07T16:58:45.251Z,26.48
2022-12-07T17:01:21.059Z,30.77
2022-12-07T17:03:49.004Z,23.38
2022-12-07T17:06:22.176Z,23.63
2022-12-07T17:08:51.071Z,25.75
2022-12-07T17:11:20.073Z,24.95
2022-12-07T17:14:06.806Z,21.88
2022-12-07T17:16:36.012Z,28.05
2022-12-07T17:19:13.641Z,24.90
2022-12-07T17:21:42.383Z,23.55
2022-12-07T17:24:11.520Z,25.98
2022-12-07T17:26:39.697Z,23.77
2022-12-07T17:29:09.736Z,25.52
2022-12-07T17:31:38.226Z,24.77
2022-12-07T17:34:10.315Z,28.08
2022-12-07T17:36:38.181Z,33.97
2022-12-07T17:39:10.512Z,33.50
2022-12-07T17:41:57.102Z,31.48
2022-12-07T17:44:24.743Z,29.85
2022-12-07T17:46:58.415Z,29.33
2022-12-07T17:49:27.306Z,32.35
2022-12-07T17:52:14.082Z,28.92
2022-12-07T17:54:41.781Z,27.63
2022-12-07T17:57:09.953Z,27.38
2022-12-07T17:59:37.925Z,27.90
2022-12-07T18:02:05.949Z,29.83
2022-12-07T18:04:33.964Z,24.70
2022-12-07T18:07:01.605Z,23.45
2022-12-07T18:09:29.243Z,24.80
2022-12-07T18:11:56.918Z,22.08
2022-12-07T18:14:24.585Z,27.15
2022-12-07T18:16:52.204Z,26.77
2022-12-07T18:19:20.281Z,28.48
2022-12-07T18:21:48.223Z,30.17
2022-12-07T18:24:17.554Z,28.45
2022-12-07T18:26:47.823Z,25.02
2022-12-07T18:29:17.805Z,24.83
2022-12-07T18:31:47.523Z,27.27
2022-12-07T18:34:17.369Z,23.88
2022-12-07T18:36:47.502Z,25.77
2022-12-07T18:39:16.292Z,23.25
2022-12-07T18:41:44.199Z,25.85
2022-12-07T18:44:13.508Z,22.30
2022-12-07T18:46:42.732Z,20.58
2022-12-07T18:49:13.357Z,24.92
2022-12-07T18:51:41.206Z,24.52
2022-12-07T18:54:09.292Z,23.73
2022-12-07T18:56:37.247Z,28.88
2022-12-07T18:59:25.368Z,28.48
2022-12-07T19:01:55.137Z,32.08
2022-12-07T19:04:23.231Z,37.33
2022-12-07T19:06:51.412Z,34.97
2022-12-07T19:09:20.366Z,30.95
2022-12-07T19:11:51.136Z,32.55
2022-12-07T19:14:25.102Z,32.25
2022-12-07T19:16:56.279Z,27.33
2022-12-07T19:19:29.056Z,33.88
2022-12-07T19:21:56.595Z,28.05
2022-12-07T19:24:24.228Z,30.08
2022-12-07T19:26:52.931Z,27.15
2022-12-07T19:29:24.928Z,26.35
2022-12-07T19:31:52.502Z,27.85
2022-12-07T19:34:20.139Z,29.45
2022-12-07T19:36:47.968Z,33.42
2022-12-07T19:39:16.275Z,28.80
2022-12-07T19:41:44.919Z,27.40
2022-12-07T19:44:22.066Z,34.10
2022-12-07T19:46:57.320Z,34.60
2022-12-07T19:49:30.532Z,30.75
2022-12-07T19:52:04.148Z,27.48
2022-12-07T19:54:32.819Z,27.65
2022-12-07T19:57:00.524Z,34.45
2022-12-07T19:59:29.579Z,27.83
2022-12-07T20:01:57.496Z,26.48
2022-12-07T20:04:29.084Z,25.10
2022-12-07T20:06:59.536Z,29.63
2022-12-07T20:09:27.935Z,31.45
2022-12-07T20:12:16.633Z,31.95
2022-12-07T20:14:44.339Z,30.75
2022-12-07T20:17:25.331Z,32.30
2022-12-07T20:19:55.978Z,29.95
2022-12-07T20:22:24.932Z,30.63
2022-12-07T20:25:00.662Z,29.92
2022-12-07T20:27:29.210Z,30.58
2022-12-07T20:29:58.027Z,24.25
2022-12-07T20:32:26.268Z,28.92
2022-12-07T20:34:55.881Z,30.98
2022-12-07T20:37:23.828Z,30.23
2022-12-07T20:39:51.407Z,33.33
2022-12-07T20:42:38.786Z,32.42
2022-12-07T20:45:09.731Z,32.47
2022-12-07T20:47:37.957Z,32.43
2022-12-07T20:50:08.657Z,30.48
2022-12-07T20:52:36.308Z,28.15
2022-12-07T20:55:04.465Z,33.55
2022-12-07T20:57:32.243Z,31.92
2022-12-07T20:59:59.998Z,30.42
2022-12-07T21:02:28.355Z,28.58
2022-12-07T21:04:56.002Z,28.70
2022-12-07T21:07:23.644Z,30.23
2022-12-07T21:09:52.964Z,31.65
2022-12-07T21:12:21.863Z,30.02
2022-12-07T21:14:49.330Z,39.45
2022-12-07T21:17:20.601Z,30.55
2022-12-07T21:19:52.161Z,30.70
2022-12-07T21:22:20.104Z,34.38
2022-12-07T21:24:47.711Z,32.67
2022-12-07T21:27:15.506Z,33.10
2022-12-07T21:29:45.213Z,28.20
2022-12-07T21:32:15.695Z,30.33
2022-12-07T21:34:43.328Z,30.45
2022-12-07T21:37:11.140Z,29.73
2022-12-07T21:39:39.296Z,30.08
2022-12-07T21:42:07.040Z,26.73
2022-12-07T21:44:35.102Z,34.95
2022-12-07T21:47:03.364Z,39.58
2022-12-07T21:49:31.377Z,33.92
2022-12-07T21:51:59.219Z,25.73
2022-12-07T21:54:27.068Z,30.15
2022-12-07T21:56:55.135Z,34.35
2022-12-07T21:59:23.275Z,30.75
2022-12-07T22:01:52.029Z,26.50
2022-12-07T22:04:25.501Z,29.00
2022-12-07T22:06:54.311Z,29.25
2022-12-07T22:09:24.727Z,28.00
2022-12-07T22:11:52.301Z,38.65
2022-12-07T22:14:38.188Z,31.90
2022-12-07T22:17:05.830Z,35.38
2022-12-07T22:19:33.386Z,30.67
2022-12-07T22:22:01.320Z,37.63
2022-12-07T22:24:29.190Z,35.03
2022-12-07T22:26:56.709Z,37.42
2022-12-07T22:29:25.352Z,30.08
2022-12-07T22:31:54.214Z,32.00
2022-12-07T22:34:22.196Z,35.83
2022-12-07T22:36:49.776Z,28.95
2022-12-07T22:39:17.316Z,32.58
2022-12-07T22:41:44.900Z,34.75
2022-12-07T22:44:12.640Z,33.28
2022-12-07T22:46:40.868Z,32.28
2022-12-07T22:49:08.520Z,32.58
2022-12-07T22:51:37.806Z,31.15
2022-12-07T22:54:08.116Z,31.38
2022-12-07T22:56:37.691Z,32.90
2022-12-07T22:59:06.595Z,36.53
2022-12-07T23:01:35.040Z,36.67
2022-12-07T23:04:03.022Z,35.55
2022-12-07T23:06:32.700Z,35.13
2022-12-07T23:09:02.150Z,31.55
2022-12-07T23:11:50.455Z,29.00
2022-12-07T23:14:25.240Z,33.97
2022-12-07T23:16:52.953Z,32.42
2022-12-07T23:19:20.460Z,32.63
2022-12-07T23:21:48.432Z,31.25
2022-12-07T23:24:16.378Z,34.83
2022-12-07T23:26:44.951Z,32.95
2022-12-07T23:29:17.198Z,30.50
2022-12-07T23:31:47.416Z,34.17
2022-12-07T23:34:15.327Z,33.78
2022-12-07T23:36:43.293Z,32.65
2022-12-07T23:39:11.575Z,36.15
2022-12-07T23:41:39.732Z,30.98
2022-12-07T23:44:07.413Z,37.72
2022-12-07T23:46:35.289Z,35.00
2022-12-07T23:49:04.944Z,36.15
2022-12-07T23:51:33.196Z,35.60
2022-12-07T23:54:04.185Z,37.35
2022-12-07T23:56:33.644Z,36.58
2022-12-07T23:59:02.103Z,31.38
